YPPD

Details ICAO YPPD (PHE)
Name Port Hedland Intl
Region Australia
Timezone Australia/Perth (UTC+8.0)
Plans Departing 33
Arriving 41
Stats Elevation 33 ft / 10 m (AMSL)
Location -20.378551° 118.629429°
Runways 2
Magnetic Variation 1.245° E
Sunrise 2018-05-24 22:32:34 UTC / 2018-05-25 06:32:34 Local
Sunset 2018-05-25 09:35:05 UTC / 2018-05-25 17:35:05 Local
Advertisement - Login to hide

Runways

ID Width Length Bearing (true) Bearing (mag) Surface Threshold Offset Overrun Length
14 148 ft / 45 m 8,216 ft / 2,504 m 137.60° 136.35° Asphalt 0 ft / 0 m 0 ft / 0 m
18 59 ft / 18 m 3,292 ft / 1,003 m 2.40° 1.15° Asphalt 0 ft / 0 m 0 ft / 0 m
32 148 ft / 45 m 8,216 ft / 2,504 m 317.60° 316.35° Asphalt 0 ft / 0 m 0 ft / 0 m
36 59 ft / 18 m 3,292 ft / 1,003 m 182.40° 181.15° Asphalt 0 ft / 0 m 0 ft / 0 m

Map

Weather


0- 5 10 15 20 25 30 35+ Temperature / ° C

Clouds and Precipitation
Forecast for 2018-05-25 00:00 UTC. Updated 6 hours ago

Ground ~20,000 ft ~40,000 ft Winds

METAR

YPPD 250500Z AUTO 02009KT 9999 // NCD 29/06 Q1010

TAF

TAF YPPD 242318Z 2500/2524 12006KT CAVOK FM250300 03010KT CAVOK FM250600 33012KT CAVOK FM251200 VRB05KT CAVOK PROB30 2518/2524 0300 FG

Frequencies

Unicom 119.60 MHz ACTIVATE LIGHTS ONLY MULT
Unicom 119.90 MHz PORT HEDLAND MULT
Unicom 118.60 MHz MELBOURNE CENTRE MULT
Warning: Do not use this data for real-world aviation or navigation. No guarantee of current accuracy is given.